Observations for ALDERNEY CHANNEL IS, United Kingdom (EGJA)

EGJA 200750Z 22007KT 0200 R26/0600 DZ FG BKN000 09/09 Q1033 
EGJA 200720Z 23008KT 0500 R26/0600 DZ FG BKN000 09/09 Q1033 
EGJA 200650Z 22008KT 0100 DZ FG BKN000 09/09 Q1033  
EGJA 191820Z 23007KT 9999 FEW005 09/08 Q1030
EGJA 191750Z 23007KT 9999 FEW005 09/08 Q1030
EGJA 191720Z 24006KT 9999 FEW006 10/08 Q1030
EGJA 191650Z 26007KT 9999 FEW006 10/09 Q1029
EGJA 191620Z 26008KT 9999 FEW004 SCT006 10/09 Q1029 
EGJA 191550Z 22007KT 9999 SCT003 BKN005 10/09 Q1029 
EGJA 191520Z 22007KT 9999 SCT002 BKN003 10/09 Q1029 
EGJA 191450Z 23007KT 9999 SCT001 BKN002 10/09 Q1029 
EGJA 191420Z 21006KT 9999 SCT001 BKN002 10/09 Q1029 
EGJA 191350Z 23006KT 9999 SCT001 BKN002 09/09 Q1029 
EGJA 191320Z 20007KT 9999 4000SW SCT001 BKN002 10/09 Q1029  
EGJA 191250Z 19006KT 9999 VCSH FEW005 SCT012 10/09 Q1029
EGJA 191220Z 21006KT 9999 VCSH FEW005 SCT012 10/08 Q1029
EGJA 191150Z 23006KT 9999 VCSH FEW005 BKN018 10/08 Q1029
EGJA 191120Z 22007KT 9999 SCT005 BKN031 10/09 Q1029 
EGJA 191050Z 22007KT 9999 FEW005 BKN035 11/09 Q1029 
EGJA 191020Z 22006KT 9999 FEW005 BKN035 10/09 Q1029 
EGJA 190950Z 22006KT 9999 FEW005 BKN035 10/09 Q1029 
EGJA 190920Z 22004KT 9999 FEW005 BKN035 10/09 Q1028 
EGJA 190850Z 25005KT 200V280 9999 FEW005 BKN035 10/09 Q1028 
EGJA 190820Z 23005KT 9999 FEW005 BKN035 10/09 Q1028 
EGJA 190750Z 22005KT 9999 FEW007 BKN035 09/08 Q1028 
EGJA 190720Z 24004KT 9999 FEW007 BKN035 09/08 Q1028 
EGJA 190650Z 25004KT 9999 FEW007 BKN035 09/08 Q1027